sensor_id;sensor_type;location;lat;lon;timestamp;P1;durP1;ratioP1;P2;durP2;ratioP2
10967;SDS011;5536;49.602;10.980;2022-09-25T00:01:23;4.50;;;2.30;;
10967;SDS011;5536;49.602;10.980;2022-09-25T00:03:59;2.63;;;2.43;;
10967;SDS011;5536;49.602;10.980;2022-09-25T00:06:40;2.07;;;1.90;;
10967;SDS011;5536;49.602;10.980;2022-09-25T00:09:19;3.13;;;2.30;;
10967;SDS011;5536;49.602;10.980;2022-09-25T00:12:10;5.03;;;2.20;;
10967;SDS011;5536;49.602;10.980;2022-09-25T00:14:51;2.40;;;2.20;;
10967;SDS011;5536;49.602;10.980;2022-09-25T00:17:38;3.53;;;2.33;;
10967;SDS011;5536;49.602;10.980;2022-09-25T00:20:20;3.17;;;2.30;;
10967;SDS011;5536;49.602;10.980;2022-09-25T00:23:10;2.77;;;2.37;;
10967;SDS011;5536;49.602;10.980;2022-09-25T00:25:54;3.57;;;2.30;;
10967;SDS011;5536;49.602;10.980;2022-09-25T00:28:35;2.70;;;2.30;;
10967;SDS011;5536;49.602;10.980;2022-09-25T00:31:07;2.63;;;2.37;;
10967;SDS011;5536;49.602;10.980;2022-09-25T00:33:39;2.87;;;2.53;;
10967;SDS011;5536;49.602;10.980;2022-09-25T00:36:12;2.27;;;2.07;;
10967;SDS011;5536;49.602;10.980;2022-09-25T00:38:40;5.93;;;2.73;;
10967;SDS011;5536;49.602;10.980;2022-09-25T00:41:10;3.70;;;2.60;;
10967;SDS011;5536;49.602;10.980;2022-09-25T00:43:42;2.33;;;2.13;;
10967;SDS011;5536;49.602;10.980;2022-09-25T00:46:29;2.57;;;2.37;;
10967;SDS011;5536;49.602;10.980;2022-09-25T00:49:00;2.10;;;2.00;;
10967;SDS011;5536;49.602;10.980;2022-09-25T00:51:32;2.37;;;2.20;;
10967;SDS011;5536;49.602;10.980;2022-09-25T00:54:18;2.67;;;1.93;;
10967;SDS011;5536;49.602;10.980;2022-09-25T00:56:53;2.67;;;2.47;;
10967;SDS011;5536;49.602;10.980;2022-09-25T00:59:24;3.73;;;2.97;;
10967;SDS011;5536;49.602;10.980;2022-09-25T01:01:55;2.70;;;2.43;;
10967;SDS011;5536;49.602;10.980;2022-09-25T01:04:23;2.80;;;2.60;;
10967;SDS011;5536;49.602;10.980;2022-09-25T01:06:56;1.97;;;1.83;;
10967;SDS011;5536;49.602;10.980;2022-09-25T01:09:32;2.03;;;1.83;;
10967;SDS011;5536;49.602;10.980;2022-09-25T01:12:05;2.87;;;1.90;;
10967;SDS011;5536;49.602;10.980;2022-09-25T01:14:36;3.37;;;2.73;;
10967;SDS011;5536;49.602;10.980;2022-09-25T01:17:05;2.90;;;2.33;;
10967;SDS011;5536;49.602;10.980;2022-09-25T01:19:46;2.67;;;2.10;;
10967;SDS011;5536;49.602;10.980;2022-09-25T01:22:31;2.80;;;2.60;;
10967;SDS011;5536;49.602;10.980;2022-09-25T01:25:16;3.97;;;2.73;;
10967;SDS011;5536;49.602;10.980;2022-09-25T01:28:17;5.63;;;2.93;;
10967;SDS011;5536;49.602;10.980;2022-09-25T01:31:30;4.10;;;2.93;;
10967;SDS011;5536;49.602;10.980;2022-09-25T01:34:06;3.73;;;2.80;;
10967;SDS011;5536;49.602;10.980;2022-09-25T01:36:39;2.03;;;1.87;;
10967;SDS011;5536;49.602;10.980;2022-09-25T01:39:21;4.30;;;2.60;;
10967;SDS011;5536;49.602;10.980;2022-09-25T01:41:58;3.17;;;2.47;;
10967;SDS011;5536;49.602;10.980;2022-09-25T01:44:39;3.07;;;2.73;;
10967;SDS011;5536;49.602;10.980;2022-09-25T01:47:26;3.13;;;2.27;;
10967;SDS011;5536;49.602;10.980;2022-09-25T01:50:16;3.70;;;2.63;;
10967;SDS011;5536;49.602;10.980;2022-09-25T01:52:58;3.27;;;2.77;;
10967;SDS011;5536;49.602;10.980;2022-09-25T01:55:45;2.40;;;2.10;;
10967;SDS011;5536;49.602;10.980;2022-09-25T01:58:35;2.80;;;2.57;;
10967;SDS011;5536;49.602;10.980;2022-09-25T02:01:14;3.10;;;2.63;;
10967;SDS011;5536;49.602;10.980;2022-09-25T02:03:54;1.70;;;1.60;;
10967;SDS011;5536;49.602;10.980;2022-09-25T02:06:28;2.70;;;2.50;;
10967;SDS011;5536;49.602;10.980;2022-09-25T02:09:05;3.60;;;2.50;;
10967;SDS011;5536;49.602;10.980;2022-09-25T02:11:46;3.17;;;2.87;;
10967;SDS011;5536;49.602;10.980;2022-09-25T02:14:27;4.30;;;2.70;;
10967;SDS011;5536;49.602;10.980;2022-09-25T02:17:07;3.30;;;2.77;;
10967;SDS011;5536;49.602;10.980;2022-09-25T02:20:03;2.80;;;2.37;;
10967;SDS011;5536;49.602;10.980;2022-09-25T02:22:52;4.03;;;2.87;;
10967;SDS011;5536;49.602;10.980;2022-09-25T02:25:43;5.70;;;2.40;;
10967;SDS011;5536;49.602;10.980;2022-09-25T02:28:22;4.30;;;3.40;;
10967;SDS011;5536;49.602;10.980;2022-09-25T02:31:04;2.73;;;2.47;;
10967;SDS011;5536;49.602;10.980;2022-09-25T02:33:40;3.30;;;2.60;;
10967;SDS011;5536;49.602;10.980;2022-09-25T02:36:18;2.13;;;1.87;;
10967;SDS011;5536;49.602;10.980;2022-09-25T02:38:53;3.23;;;2.67;;
10967;SDS011;5536;49.602;10.980;2022-09-25T02:41:26;3.00;;;2.70;;
10967;SDS011;5536;49.602;10.980;2022-09-25T02:44:07;2.40;;;2.00;;
10967;SDS011;5536;49.602;10.980;2022-09-25T02:46:50;1.67;;;1.57;;
10967;SDS011;5536;49.602;10.980;2022-09-25T02:49:28;3.20;;;2.73;;
10967;SDS011;5536;49.602;10.980;2022-09-25T02:52:16;2.47;;;2.17;;
10967;SDS011;5536;49.602;10.980;2022-09-25T02:54:51;2.70;;;2.50;;
10967;SDS011;5536;49.602;10.980;2022-09-25T02:57:27;2.50;;;2.30;;
10967;SDS011;5536;49.602;10.980;2022-09-25T03:00:05;2.53;;;2.33;;
10967;SDS011;5536;49.602;10.980;2022-09-25T03:02:34;2.43;;;2.10;;
10967;SDS011;5536;49.602;10.980;2022-09-25T03:05:03;3.20;;;2.50;;
10967;SDS011;5536;49.602;10.980;2022-09-25T03:07:40;4.90;;;2.97;;
10967;SDS011;5536;49.602;10.980;2022-09-25T03:10:27;2.37;;;2.17;;
10967;SDS011;5536;49.602;10.980;2022-09-25T03:13:11;3.63;;;3.17;;
10967;SDS011;5536;49.602;10.980;2022-09-25T03:15:39;2.70;;;2.03;;
10967;SDS011;5536;49.602;10.980;2022-09-25T03:18:12;2.70;;;2.23;;
10967;SDS011;5536;49.602;10.980;2022-09-25T03:20:59;1.80;;;1.70;;
10967;SDS011;5536;49.602;10.980;2022-09-25T03:23:37;1.47;;;1.43;;
10967;SDS011;5536;49.602;10.980;2022-09-25T03:26:18;2.10;;;2.00;;
10967;SDS011;5536;49.602;10.980;2022-09-25T03:29:10;2.83;;;2.53;;
10967;SDS011;5536;49.602;10.980;2022-09-25T03:31:41;2.97;;;1.87;;
10967;SDS011;5536;49.602;10.980;2022-09-25T03:34:15;2.53;;;2.37;;
10967;SDS011;5536;49.602;10.980;2022-09-25T03:36:49;4.00;;;1.87;;
10967;SDS011;5536;49.602;10.980;2022-09-25T03:39:25;2.10;;;2.00;;
10967;SDS011;5536;49.602;10.980;2022-09-25T03:42:00;2.20;;;2.00;;
10967;SDS011;5536;49.602;10.980;2022-09-25T03:44:28;2.77;;;2.50;;
10967;SDS011;5536;49.602;10.980;2022-09-25T03:47:05;3.37;;;2.33;;
10967;SDS011;5536;49.602;10.980;2022-09-25T03:49:37;3.10;;;2.47;;
10967;SDS011;5536;49.602;10.980;2022-09-25T03:52:07;2.83;;;2.60;;
10967;SDS011;5536;49.602;10.980;2022-09-25T03:54:41;4.03;;;2.83;;
10967;SDS011;5536;49.602;10.980;2022-09-25T03:57:08;2.03;;;1.83;;
10967;SDS011;5536;49.602;10.980;2022-09-25T03:59:36;2.70;;;2.40;;
10967;SDS011;5536;49.602;10.980;2022-09-25T04:02:05;4.27;;;2.97;;
10967;SDS011;5536;49.602;10.980;2022-09-25T04:04:36;3.17;;;2.23;;
10967;SDS011;5536;49.602;10.980;2022-09-25T04:07:07;2.30;;;2.10;;
10967;SDS011;5536;49.602;10.980;2022-09-25T04:09:34;2.73;;;2.47;;
10967;SDS011;5536;49.602;10.980;2022-09-25T04:12:07;5.27;;;2.47;;
10967;SDS011;5536;49.602;10.980;2022-09-25T04:14:35;2.83;;;2.53;;
10967;SDS011;5536;49.602;10.980;2022-09-25T04:17:02;4.13;;;2.60;;
10967;SDS011;5536;49.602;10.980;2022-09-25T04:19:34;2.53;;;2.33;;
10967;SDS011;5536;49.602;10.980;2022-09-25T04:22:10;3.03;;;2.70;;
10967;SDS011;5536;49.602;10.980;2022-09-25T04:24:37;4.17;;;2.27;;
10967;SDS011;5536;49.602;10.980;2022-09-25T04:27:15;3.90;;;2.53;;
10967;SDS011;5536;49.602;10.980;2022-09-25T04:29:46;2.93;;;2.63;;
10967;SDS011;5536;49.602;10.980;2022-09-25T04:32:21;2.83;;;2.53;;
10967;SDS011;5536;49.602;10.980;2022-09-25T04:35:06;2.60;;;2.40;;
10967;SDS011;5536;49.602;10.980;2022-09-25T04:37:34;3.60;;;2.47;;
10967;SDS011;5536;49.602;10.980;2022-09-25T04:40:04;2.40;;;2.20;;
10967;SDS011;5536;49.602;10.980;2022-09-25T04:42:33;2.30;;;2.20;;
10967;SDS011;5536;49.602;10.980;2022-09-25T04:45:01;3.20;;;2.53;;
10967;SDS011;5536;49.602;10.980;2022-09-25T04:47:34;2.83;;;2.50;;
10967;SDS011;5536;49.602;10.980;2022-09-25T04:50:03;3.67;;;2.07;;
10967;SDS011;5536;49.602;10.980;2022-09-25T04:52:33;2.30;;;1.93;;
10967;SDS011;5536;49.602;10.980;2022-09-25T04:55:00;2.00;;;1.87;;
10967;SDS011;5536;49.602;10.980;2022-09-25T04:57:28;4.20;;;2.30;;
10967;SDS011;5536;49.602;10.980;2022-09-25T04:59:57;3.20;;;2.20;;
10967;SDS011;5536;49.602;10.980;2022-09-25T05:02:29;3.20;;;2.73;;
10967;SDS011;5536;49.602;10.980;2022-09-25T05:04:56;4.33;;;2.33;;
10967;SDS011;5536;49.602;10.980;2022-09-25T05:07:27;3.13;;;2.17;;
10967;SDS011;5536;49.602;10.980;2022-09-25T05:09:54;7.63;;;3.90;;
10967;SDS011;5536;49.602;10.980;2022-09-25T05:12:25;3.27;;;3.07;;
10967;SDS011;5536;49.602;10.980;2022-09-25T05:14:54;1.80;;;1.70;;
10967;SDS011;5536;49.602;10.980;2022-09-25T05:17:26;2.37;;;2.17;;
10967;SDS011;5536;49.602;10.980;2022-09-25T05:19:57;2.33;;;2.10;;
10967;SDS011;5536;49.602;10.980;2022-09-25T05:22:24;2.97;;;2.27;;
10967;SDS011;5536;49.602;10.980;2022-09-25T05:24:52;1.87;;;1.77;;
10967;SDS011;5536;49.602;10.980;2022-09-25T05:27:19;1.80;;;1.70;;
10967;SDS011;5536;49.602;10.980;2022-09-25T05:29:47;3.00;;;1.83;;
10967;SDS011;5536;49.602;10.980;2022-09-25T05:32:18;3.10;;;2.37;;
10967;SDS011;5536;49.602;10.980;2022-09-25T05:34:52;2.17;;;2.07;;
10967;SDS011;5536;49.602;10.980;2022-09-25T05:37:23;3.10;;;2.83;;
10967;SDS011;5536;49.602;10.980;2022-09-25T05:39:53;4.40;;;2.80;;
10967;SDS011;5536;49.602;10.980;2022-09-25T05:42:20;3.33;;;2.43;;
10967;SDS011;5536;49.602;10.980;2022-09-25T05:44:49;1.83;;;1.70;;
10967;SDS011;5536;49.602;10.980;2022-09-25T05:47:21;1.80;;;1.70;;
10967;SDS011;5536;49.602;10.980;2022-09-25T05:49:57;4.20;;;2.83;;
10967;SDS011;5536;49.602;10.980;2022-09-25T05:52:28;2.60;;;2.40;;
10967;SDS011;5536;49.602;10.980;2022-09-25T05:54:59;4.10;;;2.53;;
10967;SDS011;5536;49.602;10.980;2022-09-25T05:57:47;2.17;;;1.87;;
10967;SDS011;5536;49.602;10.980;2022-09-25T06:00:21;1.90;;;1.80;;
10967;SDS011;5536;49.602;10.980;2022-09-25T06:03:02;1.70;;;1.60;;
10967;SDS011;5536;49.602;10.980;2022-09-25T06:05:35;3.07;;;2.13;;
10967;SDS011;5536;49.602;10.980;2022-09-25T06:08:04;2.53;;;2.07;;
10967;SDS011;5536;49.602;10.980;2022-09-25T06:10:50;7.00;;;2.47;;
10967;SDS011;5536;49.602;10.980;2022-09-25T06:13:25;5.57;;;2.60;;
10967;SDS011;5536;49.602;10.980;2022-09-25T06:16:12;2.87;;;2.57;;
10967;SDS011;5536;49.602;10.980;2022-09-25T06:18:52;4.13;;;3.07;;
10967;SDS011;5536;49.602;10.980;2022-09-25T06:21:20;4.37;;;3.60;;
10967;SDS011;5536;49.602;10.980;2022-09-25T06:23:57;2.20;;;1.90;;
10967;SDS011;5536;49.602;10.980;2022-09-25T06:29:03;3.53;;;3.10;;
10967;SDS011;5536;49.602;10.980;2022-09-25T06:31:40;5.13;;;2.40;;
10967;SDS011;5536;49.602;10.980;2022-09-25T06:34:12;3.07;;;2.77;;
10967;SDS011;5536;49.602;10.980;2022-09-25T06:36:47;3.50;;;2.70;;
10967;SDS011;5536;49.602;10.980;2022-09-25T06:39:30;2.27;;;2.13;;
10967;SDS011;5536;49.602;10.980;2022-09-25T06:42:09;4.53;;;2.53;;
10967;SDS011;5536;49.602;10.980;2022-09-25T06:44:42;2.60;;;2.20;;
10967;SDS011;5536;49.602;10.980;2022-09-25T06:47:15;2.83;;;2.53;;
10967;SDS011;5536;49.602;10.980;2022-09-25T06:52:56;2.37;;;2.17;;
10967;SDS011;5536;49.602;10.980;2022-09-25T06:55:42;2.77;;;2.13;;
10967;SDS011;5536;49.602;10.980;2022-09-25T06:58:16;2.13;;;1.93;;
10967;SDS011;5536;49.602;10.980;2022-09-25T07:00:54;2.40;;;1.97;;
10967;SDS011;5536;49.602;10.980;2022-09-25T07:03:34;1.83;;;1.70;;
10967;SDS011;5536;49.602;10.980;2022-09-25T07:09:06;2.50;;;2.10;;
10967;SDS011;5536;49.602;10.980;2022-09-25T07:14:33;3.57;;;2.10;;
10967;SDS011;5536;49.602;10.980;2022-09-25T07:17:17;4.37;;;3.10;;
10967;SDS011;5536;49.602;10.980;2022-09-25T07:20:09;2.37;;;2.07;;
10967;SDS011;5536;49.602;10.980;2022-09-25T07:22:50;4.23;;;2.77;;
10967;SDS011;5536;49.602;10.980;2022-09-25T07:25:20;3.93;;;3.00;;
10967;SDS011;5536;49.602;10.980;2022-09-25T07:28:06;2.63;;;2.33;;
10967;SDS011;5536;49.602;10.980;2022-09-25T07:30:44;3.10;;;2.27;;
10967;SDS011;5536;49.602;10.980;2022-09-25T07:33:27;3.30;;;2.30;;
10967;SDS011;5536;49.602;10.980;2022-09-25T07:36:05;3.23;;;2.93;;
10967;SDS011;5536;49.602;10.980;2022-09-25T07:44:40;2.53;;;2.30;;
10967;SDS011;5536;49.602;10.980;2022-09-25T07:47:35;5.73;;;2.70;;
10967;SDS011;5536;49.602;10.980;2022-09-25T07:50:06;2.07;;;1.67;;
10967;SDS011;5536;49.602;10.980;2022-09-25T07:52:41;2.70;;;2.50;;
10967;SDS011;5536;49.602;10.980;2022-09-25T07:55:25;2.63;;;2.43;;
10967;SDS011;5536;49.602;10.980;2022-09-25T07:58:09;3.67;;;2.40;;
10967;SDS011;5536;49.602;10.980;2022-09-25T08:00:54;5.97;;;2.83;;
10967;SDS011;5536;49.602;10.980;2022-09-25T08:03:29;3.53;;;3.17;;
10967;SDS011;5536;49.602;10.980;2022-09-25T08:06:05;2.90;;;2.20;;
10967;SDS011;5536;49.602;10.980;2022-09-25T08:08:39;5.33;;;3.63;;
10967;SDS011;5536;49.602;10.980;2022-09-25T08:11:11;6.80;;;3.50;;
10967;SDS011;5536;49.602;10.980;2022-09-25T08:13:52;6.07;;;3.47;;
10967;SDS011;5536;49.602;10.980;2022-09-25T08:16:35;4.23;;;3.13;;
10967;SDS011;5536;49.602;10.980;2022-09-25T08:19:08;3.17;;;2.87;;
10967;SDS011;5536;49.602;10.980;2022-09-25T08:21:53;3.73;;;2.53;;
10967;SDS011;5536;49.602;10.980;2022-09-25T08:24:27;4.43;;;2.60;;
10967;SDS011;5536;49.602;10.980;2022-09-25T08:26:54;4.27;;;2.53;;
10967;SDS011;5536;49.602;10.980;2022-09-25T08:29:37;8.77;;;3.43;;
10967;SDS011;5536;49.602;10.980;2022-09-25T08:32:20;6.87;;;3.00;;
10967;SDS011;5536;49.602;10.980;2022-09-25T08:35:03;2.37;;;2.17;;
10967;SDS011;5536;49.602;10.980;2022-09-25T08:37:46;4.10;;;2.63;;
10967;SDS011;5536;49.602;10.980;2022-09-25T08:40:23;3.73;;;2.87;;
10967;SDS011;5536;49.602;10.980;2022-09-25T08:42:59;3.43;;;2.30;;
10967;SDS011;5536;49.602;10.980;2022-09-25T08:45:48;5.50;;;2.70;;
10967;SDS011;5536;49.602;10.980;2022-09-25T08:48:35;5.07;;;3.23;;
10967;SDS011;5536;49.602;10.980;2022-09-25T08:51:37;4.37;;;2.87;;
10967;SDS011;5536;49.602;10.980;2022-09-25T08:54:34;3.93;;;2.80;;
10967;SDS011;5536;49.602;10.980;2022-09-25T08:57:10;5.70;;;2.43;;
10967;SDS011;5536;49.602;10.980;2022-09-25T08:59:51;4.17;;;2.93;;
10967;SDS011;5536;49.602;10.980;2022-09-25T09:02:32;2.43;;;2.23;;
10967;SDS011;5536;49.602;10.980;2022-09-25T09:05:29;3.07;;;2.43;;
10967;SDS011;5536;49.602;10.980;2022-09-25T09:08:14;5.03;;;2.63;;
10967;SDS011;5536;49.602;10.980;2022-09-25T09:11:06;2.30;;;2.03;;
10967;SDS011;5536;49.602;10.980;2022-09-25T09:13:56;3.20;;;2.60;;
10967;SDS011;5536;49.602;10.980;2022-09-25T09:16:41;3.37;;;2.27;;
10967;SDS011;5536;49.602;10.980;2022-09-25T09:22:28;5.07;;;3.47;;
10967;SDS011;5536;49.602;10.980;2022-09-25T09:25:08;3.63;;;3.10;;
10967;SDS011;5536;49.602;10.980;2022-09-25T09:28:04;5.23;;;2.50;;
10967;SDS011;5536;49.602;10.980;2022-09-25T09:30:48;5.30;;;2.97;;
10967;SDS011;5536;49.602;10.980;2022-09-25T09:33:46;2.50;;;2.10;;
10967;SDS011;5536;49.602;10.980;2022-09-25T09:36:35;2.53;;;2.10;;
10967;SDS011;5536;49.602;10.980;2022-09-25T09:42:33;6.57;;;2.47;;
10967;SDS011;5536;49.602;10.980;2022-09-25T09:45:32;4.40;;;2.03;;
10967;SDS011;5536;49.602;10.980;2022-09-25T09:48:11;4.00;;;3.03;;
10967;SDS011;5536;49.602;10.980;2022-09-25T09:50:54;2.37;;;2.20;;
10967;SDS011;5536;49.602;10.980;2022-09-25T09:53:50;3.83;;;2.43;;
10967;SDS011;5536;49.602;10.980;2022-09-25T09:56:46;2.60;;;1.70;;
10967;SDS011;5536;49.602;10.980;2022-09-25T09:59:21;5.33;;;1.83;;
10967;SDS011;5536;49.602;10.980;2022-09-25T10:01:59;2.87;;;2.13;;
10967;SDS011;5536;49.602;10.980;2022-09-25T10:04:49;2.97;;;2.00;;
10967;SDS011;5536;49.602;10.980;2022-09-25T10:07:32;2.83;;;1.93;;
10967;SDS011;5536;49.602;10.980;2022-09-25T10:10:07;4.63;;;2.40;;
10967;SDS011;5536;49.602;10.980;2022-09-25T10:12:52;3.73;;;2.50;;
10967;SDS011;5536;49.602;10.980;2022-09-25T10:15:35;2.87;;;2.07;;
10967;SDS011;5536;49.602;10.980;2022-09-25T10:18:11;4.10;;;2.20;;
10967;SDS011;5536;49.602;10.980;2022-09-25T10:21:00;5.37;;;2.13;;
10967;SDS011;5536;49.602;10.980;2022-09-25T10:23:46;4.63;;;2.70;;
10967;SDS011;5536;49.602;10.980;2022-09-25T10:26:33;5.13;;;2.73;;
10967;SDS011;5536;49.602;10.980;2022-09-25T10:29:24;4.20;;;2.00;;
10967;SDS011;5536;49.602;10.980;2022-09-25T10:32:03;3.20;;;1.93;;
10967;SDS011;5536;49.602;10.980;2022-09-25T10:34:38;5.10;;;2.20;;
10967;SDS011;5536;49.602;10.980;2022-09-25T10:37:19;6.07;;;2.97;;
10967;SDS011;5536;49.602;10.980;2022-09-25T10:40:01;3.07;;;1.93;;
10967;SDS011;5536;49.602;10.980;2022-09-25T10:45:45;2.60;;;2.33;;
10967;SDS011;5536;49.602;10.980;2022-09-25T10:48:25;3.47;;;1.90;;
10967;SDS011;5536;49.602;10.980;2022-09-25T10:51:21;2.33;;;2.13;;
10967;SDS011;5536;49.602;10.980;2022-09-25T10:54:18;2.22;;;2.03;;
10967;SDS011;5536;49.602;10.980;2022-09-25T10:56:55;4.13;;;2.08;;
10967;SDS011;5536;49.602;10.980;2022-09-25T10:59:47;2.17;;;1.80;;
10967;SDS011;5536;49.602;10.980;2022-09-25T11:02:36;0.60;;;0.60;;
10967;SDS011;5536;49.602;10.980;2022-09-25T11:05:13;0.40;;;0.40;;
10967;SDS011;5536;49.602;10.980;2022-09-25T11:07:45;1.13;;;0.80;;
10967;SDS011;5536;49.602;10.980;2022-09-25T11:10:42;0.80;;;0.80;;
10967;SDS011;5536;49.602;10.980;2022-09-25T11:13:18;1.97;;;1.87;;
10967;SDS011;5536;49.602;10.980;2022-09-25T11:15:55;0.50;;;0.50;;
10967;SDS011;5536;49.602;10.980;2022-09-25T11:18:44;0.37;;;0.37;;
10967;SDS011;5536;49.602;10.980;2022-09-25T11:21:22;0.30;;;0.30;;
10967;SDS011;5536;49.602;10.980;2022-09-25T11:27:13;0.40;;;0.40;;
10967;SDS011;5536;49.602;10.980;2022-09-25T11:30:12;0.47;;;0.37;;
10967;SDS011;5536;49.602;10.980;2022-09-25T11:32:50;0.60;;;0.60;;
10967;SDS011;5536;49.602;10.980;2022-09-25T11:35:55;2.90;;;0.70;;
10967;SDS011;5536;49.602;10.980;2022-09-25T11:38:38;0.50;;;0.50;;
10967;SDS011;5536;49.602;10.980;2022-09-25T11:44:47;0.80;;;0.80;;
10967;SDS011;5536;49.602;10.980;2022-09-25T11:47:24;0.70;;;0.70;;
10967;SDS011;5536;49.602;10.980;2022-09-25T11:50:01;0.67;;;0.67;;
10967;SDS011;5536;49.602;10.980;2022-09-25T11:52:58;0.57;;;0.57;;
10967;SDS011;5536;49.602;10.980;2022-09-25T11:55:47;1.80;;;1.03;;
10967;SDS011;5536;49.602;10.980;2022-09-25T11:58:38;0.60;;;0.60;;
10967;SDS011;5536;49.602;10.980;2022-09-25T12:01:28;0.83;;;0.73;;
10967;SDS011;5536;49.602;10.980;2022-09-25T12:07:36;1.10;;;1.10;;
10967;SDS011;5536;49.602;10.980;2022-09-25T12:10:25;0.73;;;0.73;;
10967;SDS011;5536;49.602;10.980;2022-09-25T12:13:02;0.97;;;0.77;;
10967;SDS011;5536;49.602;10.980;2022-09-25T12:15:54;0.50;;;0.50;;
10967;SDS011;5536;49.602;10.980;2022-09-25T12:21:53;0.87;;;0.70;;
10967;SDS011;5536;49.602;10.980;2022-09-25T12:27:37;1.37;;;0.67;;
10967;SDS011;5536;49.602;10.980;2022-09-25T12:30:18;0.60;;;0.60;;
10967;SDS011;5536;49.602;10.980;2022-09-25T12:35:48;0.97;;;0.87;;
10967;SDS011;5536;49.602;10.980;2022-09-25T12:38:25;0.40;;;0.40;;
10967;SDS011;5536;49.602;10.980;2022-09-25T12:41:03;0.80;;;0.80;;
10967;SDS011;5536;49.602;10.980;2022-09-25T12:43:41;0.73;;;0.67;;
10967;SDS011;5536;49.602;10.980;2022-09-25T12:46:18;0.67;;;0.50;;
10967;SDS011;5536;49.602;10.980;2022-09-25T12:49:03;0.40;;;0.40;;
10967;SDS011;5536;49.602;10.980;2022-09-25T12:51:40;0.73;;;0.73;;
10967;SDS011;5536;49.602;10.980;2022-09-25T12:54:19;0.50;;;0.50;;
10967;SDS011;5536;49.602;10.980;2022-09-25T12:57:09;0.67;;;0.67;;
10967;SDS011;5536;49.602;10.980;2022-09-25T12:59:49;0.73;;;0.73;;
10967;SDS011;5536;49.602;10.980;2022-09-25T13:02:29;0.73;;;0.70;;
10967;SDS011;5536;49.602;10.980;2022-09-25T13:05:09;1.13;;;0.80;;
10967;SDS011;5536;49.602;10.980;2022-09-25T13:07:47;2.30;;;1.27;;
10967;SDS011;5536;49.602;10.980;2022-09-25T13:10:28;0.70;;;0.70;;
10967;SDS011;5536;49.602;10.980;2022-09-25T13:13:36;0.77;;;0.77;;
10967;SDS011;5536;49.602;10.980;2022-09-25T13:16:28;1.87;;;1.20;;
10967;SDS011;5536;49.602;10.980;2022-09-25T13:19:09;1.60;;;0.70;;
10967;SDS011;5536;49.602;10.980;2022-09-25T13:21:40;0.50;;;0.50;;
10967;SDS011;5536;49.602;10.980;2022-09-25T13:24:13;0.97;;;0.97;;
10967;SDS011;5536;49.602;10.980;2022-09-25T13:26:43;1.10;;;1.10;;
10967;SDS011;5536;49.602;10.980;2022-09-25T13:29:25;1.77;;;1.20;;
10967;SDS011;5536;49.602;10.980;2022-09-25T13:32:12;0.60;;;0.60;;
10967;SDS011;5536;49.602;10.980;2022-09-25T13:34:43;1.30;;;1.20;;
10967;SDS011;5536;49.602;10.980;2022-09-25T13:37:38;0.70;;;0.70;;
10967;SDS011;5536;49.602;10.980;2022-09-25T13:40:21;0.80;;;0.80;;
10967;SDS011;5536;49.602;10.980;2022-09-25T13:43:17;0.83;;;0.70;;
10967;SDS011;5536;49.602;10.980;2022-09-25T13:49:08;0.70;;;0.70;;
10967;SDS011;5536;49.602;10.980;2022-09-25T13:52:21;2.00;;;1.00;;
10967;SDS011;5536;49.602;10.980;2022-09-25T13:55:42;0.60;;;0.60;;
10967;SDS011;5536;49.602;10.980;2022-09-25T14:01:50;0.73;;;0.73;;
10967;SDS011;5536;49.602;10.980;2022-09-25T14:04:48;0.53;;;0.53;;
10967;SDS011;5536;49.602;10.980;2022-09-25T14:07:28;0.70;;;0.70;;
10967;SDS011;5536;49.602;10.980;2022-09-25T14:10:01;0.90;;;0.90;;
10967;SDS011;5536;49.602;10.980;2022-09-25T14:12:46;1.03;;;1.03;;
10967;SDS011;5536;49.602;10.980;2022-09-25T14:15:28;1.90;;;1.30;;
10967;SDS011;5536;49.602;10.980;2022-09-25T14:18:15;1.10;;;1.00;;
10967;SDS011;5536;49.602;10.980;2022-09-25T14:20:57;0.80;;;0.80;;
10967;SDS011;5536;49.602;10.980;2022-09-25T14:23:45;0.70;;;0.70;;
10967;SDS011;5536;49.602;10.980;2022-09-25T14:26:35;1.30;;;1.20;;
10967;SDS011;5536;49.602;10.980;2022-09-25T14:29:28;0.80;;;0.80;;
10967;SDS011;5536;49.602;10.980;2022-09-25T14:32:32;1.20;;;1.20;;
10967;SDS011;5536;49.602;10.980;2022-09-25T14:35:38;1.20;;;0.80;;
10967;SDS011;5536;49.602;10.980;2022-09-25T14:38:40;0.70;;;0.70;;
10967;SDS011;5536;49.602;10.980;2022-09-25T14:41:33;0.87;;;0.87;;
10967;SDS011;5536;49.602;10.980;2022-09-25T14:44:36;0.90;;;0.90;;
10967;SDS011;5536;49.602;10.980;2022-09-25T14:47:21;0.80;;;0.80;;
10967;SDS011;5536;49.602;10.980;2022-09-25T14:49:59;0.97;;;0.97;;
10967;SDS011;5536;49.602;10.980;2022-09-25T14:52:33;0.80;;;0.80;;
10967;SDS011;5536;49.602;10.980;2022-09-25T14:55:31;0.70;;;0.70;;
10967;SDS011;5536;49.602;10.980;2022-09-25T14:58:14;1.00;;;0.90;;
10967;SDS011;5536;49.602;10.980;2022-09-25T15:00:53;0.57;;;0.57;;
10967;SDS011;5536;49.602;10.980;2022-09-25T15:03:45;0.63;;;0.63;;
10967;SDS011;5536;49.602;10.980;2022-09-25T15:06:27;0.50;;;0.50;;
10967;SDS011;5536;49.602;10.980;2022-09-25T15:09:26;0.40;;;0.40;;
10967;SDS011;5536;49.602;10.980;2022-09-25T15:12:06;2.43;;;0.63;;
10967;SDS011;5536;49.602;10.980;2022-09-25T15:15:00;0.70;;;0.70;;
10967;SDS011;5536;49.602;10.980;2022-09-25T15:17:50;0.87;;;0.73;;
10967;SDS011;5536;49.602;10.980;2022-09-25T15:20:31;1.30;;;0.57;;
10967;SDS011;5536;49.602;10.980;2022-09-25T15:23:12;1.23;;;1.13;;
10967;SDS011;5536;49.602;10.980;2022-09-25T15:25:47;0.83;;;0.83;;
10967;SDS011;5536;49.602;10.980;2022-09-25T15:28:24;2.60;;;1.73;;
10967;SDS011;5536;49.602;10.980;2022-09-25T15:30:55;1.10;;;1.00;;
10967;SDS011;5536;49.602;10.980;2022-09-25T15:33:40;1.33;;;1.23;;
10967;SDS011;5536;49.602;10.980;2022-09-25T15:36:18;1.00;;;1.00;;
10967;SDS011;5536;49.602;10.980;2022-09-25T15:38:52;1.37;;;0.90;;
10967;SDS011;5536;49.602;10.980;2022-09-25T15:41:27;0.80;;;0.80;;
10967;SDS011;5536;49.602;10.980;2022-09-25T15:50:56;0.67;;;0.67;;
10967;SDS011;5536;49.602;10.980;2022-09-25T15:53:37;1.30;;;1.20;;
10967;SDS011;5536;49.602;10.980;2022-09-25T15:56:29;1.93;;;1.27;;
10967;SDS011;5536;49.602;10.980;2022-09-25T15:59:21;1.40;;;0.93;;
10967;SDS011;5536;49.602;10.980;2022-09-25T16:02:15;0.80;;;0.80;;
10967;SDS011;5536;49.602;10.980;2022-09-25T16:05:07;1.03;;;0.90;;
10967;SDS011;5536;49.602;10.980;2022-09-25T16:16:44;1.00;;;1.00;;
10967;SDS011;5536;49.602;10.980;2022-09-25T16:19:28;2.27;;;1.20;;
10967;SDS011;5536;49.602;10.980;2022-09-25T16:22:17;1.03;;;1.03;;
10967;SDS011;5536;49.602;10.980;2022-09-25T16:28:17;0.70;;;0.70;;
10967;SDS011;5536;49.602;10.980;2022-09-25T16:30:54;0.97;;;0.87;;
10967;SDS011;5536;49.602;10.980;2022-09-25T16:33:41;0.90;;;0.90;;
10967;SDS011;5536;49.602;10.980;2022-09-25T16:36:41;1.37;;;1.27;;
10967;SDS011;5536;49.602;10.980;2022-09-25T16:39:27;1.00;;;1.00;;
10967;SDS011;5536;49.602;10.980;2022-09-25T16:56:53;1.43;;;1.07;;
10967;SDS011;5536;49.602;10.980;2022-09-25T16:59:34;1.53;;;1.43;;
10967;SDS011;5536;49.602;10.980;2022-09-25T17:02:24;1.33;;;1.23;;
10967;SDS011;5536;49.602;10.980;2022-09-25T17:05:11;2.17;;;1.97;;
10967;SDS011;5536;49.602;10.980;2022-09-25T17:07:57;2.10;;;1.50;;
10967;SDS011;5536;49.602;10.980;2022-09-25T17:20:02;1.77;;;1.67;;
10967;SDS011;5536;49.602;10.980;2022-09-25T17:22:44;1.40;;;1.27;;
10967;SDS011;5536;49.602;10.980;2022-09-25T17:25:35;1.83;;;1.67;;
10967;SDS011;5536;49.602;10.980;2022-09-25T17:28:28;2.47;;;1.67;;
10967;SDS011;5536;49.602;10.980;2022-09-25T17:31:10;2.00;;;1.67;;
10967;SDS011;5536;49.602;10.980;2022-09-25T18:38:44;1.10;;;1.03;;
10967;SDS011;5536;49.602;10.980;2022-09-25T18:41:16;3.80;;;3.13;;
10967;SDS011;5536;49.602;10.980;2022-09-25T18:43:51;2.80;;;2.60;;
10967;SDS011;5536;49.602;10.980;2022-09-25T18:46:21;0.83;;;0.83;;
10967;SDS011;5536;49.602;10.980;2022-09-25T18:49:09;0.87;;;0.87;;